Terminal Aerodrome Forecast
Issued by NWS Charleston, WV

Current Version | Previous Version | Text Only | Print | Product List | Glossary Off
Versions: 1 2 3 4 5 6 7 8 9 10 11 12 13 14 15 16 17 18 19 20 21 22 23 24 25 26 27 28 29 30

979
FTUS41 KRLX 231756 AAC
TAFEKN
TAF AMD
KEKN 231756Z 2318/2418 22008G14KT P6SM BKN060
     FM232300 25004KT P6SM BKN130
     FM240600 00000KT 5SM BR OVC015
     FM241100 00000KT 1 1/2SM SHRA BR OVC008
     FM241200 00000KT 1SM BR OVC008
     FM241500 00000KT 1 1/2SM SHRA BR OVC008=

USA.gov is the U.S. government's official web portal to all federal, state and local government web resources and services.